sensor_id;sensor_type;location;lat;lon;timestamp;pressure;altitude;pressure_sealevel;temperature;humidity
23166;BME280;11751;42.700;24.170;2022-09-09T00:00:48;94276.59;;;16.04;88.54
23166;BME280;11751;42.700;24.170;2022-09-09T00:03:32;94272.78;;;16.09;88.38
23166;BME280;11751;42.700;24.170;2022-09-09T00:06:06;94266.97;;;16.07;88.42
23166;BME280;11751;42.700;24.170;2022-09-09T00:11:12;94274.91;;;15.92;89.31
23166;BME280;11751;42.700;24.170;2022-09-09T00:13:44;94275.53;;;16.00;88.99
23166;BME280;11751;42.700;24.170;2022-09-09T00:27:44;94272.91;;;15.75;90.44
23166;BME280;11751;42.700;24.170;2022-09-09T00:32:36;94263.97;;;15.69;90.74
23166;BME280;11751;42.700;24.170;2022-09-09T00:37:54;94260.97;;;15.67;90.40
23166;BME280;11751;42.700;24.170;2022-09-09T00:40:26;94265.56;;;15.63;90.73
23166;BME280;11751;42.700;24.170;2022-09-09T00:45:37;94265.22;;;15.85;88.87
23166;BME280;11751;42.700;24.170;2022-09-09T00:48:10;94248.28;;;15.85;88.14
23166;BME280;11751;42.700;24.170;2022-09-09T00:50:53;94253.06;;;15.92;87.99
23166;BME280;11751;42.700;24.170;2022-09-09T00:56:20;94249.31;;;15.80;88.44
23166;BME280;11751;42.700;24.170;2022-09-09T00:59:22;94244.56;;;15.56;89.75
23166;BME280;11751;42.700;24.170;2022-09-09T01:01:50;94242.56;;;15.66;88.98
23166;BME280;11751;42.700;24.170;2022-09-09T01:04:24;94244.91;;;15.60;89.12
23166;BME280;11751;42.700;24.170;2022-09-09T01:06:58;94235.31;;;15.46;89.94
23166;BME280;11751;42.700;24.170;2022-09-09T01:09:45;94231.50;;;15.51;88.65
23166;BME280;11751;42.700;24.170;2022-09-09T01:12:24;94229.13;;;15.57;88.24
23166;BME280;11751;42.700;24.170;2022-09-09T01:15:01;94231.78;;;15.55;88.15
23166;BME280;11751;42.700;24.170;2022-09-09T01:17:36;94227.31;;;15.52;88.44
23166;BME280;11751;42.700;24.170;2022-09-09T01:20:14;94228.28;;;15.64;88.03
23166;BME280;11751;42.700;24.170;2022-09-09T01:27:54;94221.91;;;15.64;87.63
23166;BME280;11751;42.700;24.170;2022-09-09T01:30:21;94220.41;;;15.63;87.32
23166;BME280;11751;42.700;24.170;2022-09-09T01:32:50;94229.31;;;15.59;87.38
23166;BME280;11751;42.700;24.170;2022-09-09T01:37:57;94234.53;;;15.72;87.16
23166;BME280;11751;42.700;24.170;2022-09-09T01:40:23;94236.16;;;15.66;87.33
23166;BME280;11751;42.700;24.170;2022-09-09T01:42:49;94233.63;;;15.60;88.39
23166;BME280;11751;42.700;24.170;2022-09-09T01:45:14;94228.97;;;15.55;88.00
23166;BME280;11751;42.700;24.170;2022-09-09T01:47:40;94233.63;;;15.60;87.30
23166;BME280;11751;42.700;24.170;2022-09-09T01:50:08;94224.66;;;15.54;87.97
23166;BME280;11751;42.700;24.170;2022-09-09T01:52:37;94212.03;;;15.55;87.00
23166;BME280;11751;42.700;24.170;2022-09-09T01:55:03;94219.78;;;15.55;87.26
23166;BME280;11751;42.700;24.170;2022-09-09T01:57:33;94220.94;;;15.52;87.68
23166;BME280;11751;42.700;24.170;2022-09-09T02:00:08;94240.53;;;15.50;87.32
23166;BME280;11751;42.700;24.170;2022-09-09T02:05:36;94238.31;;;15.48;86.89
23166;BME280;11751;42.700;24.170;2022-09-09T02:11:05;94239.31;;;15.43;86.58
23166;BME280;11751;42.700;24.170;2022-09-09T02:13:29;94243.31;;;15.41;86.69
23166;BME280;11751;42.700;24.170;2022-09-09T02:18:55;94244.47;;;15.38;87.28
23166;BME280;11751;42.700;24.170;2022-09-09T02:21:23;94244.19;;;15.00;89.98
23166;BME280;11751;42.700;24.170;2022-09-09T02:23:50;94248.00;;;14.95;90.18
23166;BME280;11751;42.700;24.170;2022-09-09T02:26:19;94240.34;;;15.05;89.89
23166;BME280;11751;42.700;24.170;2022-09-09T02:28:50;94249.75;;;15.07;89.10
23166;BME280;11751;42.700;24.170;2022-09-09T02:31:22;94246.06;;;15.14;88.62
23166;BME280;11751;42.700;24.170;2022-09-09T02:33:59;94244.00;;;15.15;88.79
23166;BME280;11751;42.700;24.170;2022-09-09T02:36:28;94258.84;;;15.15;88.82
23166;BME280;11751;42.700;24.170;2022-09-09T02:38:56;94253.03;;;15.13;88.83
23166;BME280;11751;42.700;24.170;2022-09-09T02:41:31;94257.03;;;15.10;88.64
23166;BME280;11751;42.700;24.170;2022-09-09T02:43:57;94262.34;;;15.06;89.46
23166;BME280;11751;42.700;24.170;2022-09-09T02:49:11;94254.97;;;15.11;90.32
23166;BME280;11751;42.700;24.170;2022-09-09T02:52:07;94247.19;;;15.02;90.94
23166;BME280;11751;42.700;24.170;2022-09-09T02:54:34;94248.50;;;14.84;91.05
23166;BME280;11751;42.700;24.170;2022-09-09T02:57:10;94253.84;;;14.63;92.48
23166;BME280;11751;42.700;24.170;2022-09-09T02:59:36;94255.47;;;14.66;92.28
23166;BME280;11751;42.700;24.170;2022-09-09T03:02:02;94259.31;;;14.61;92.43
23166;BME280;11751;42.700;24.170;2022-09-09T03:04:27;94250.50;;;14.57;92.74
23166;BME280;11751;42.700;24.170;2022-09-09T03:06:53;94258.53;;;14.60;92.42
23166;BME280;11751;42.700;24.170;2022-09-09T03:09:19;94260.81;;;14.62;91.82
23166;BME280;11751;42.700;24.170;2022-09-09T03:11:44;94255.66;;;14.51;92.34
23166;BME280;11751;42.700;24.170;2022-09-09T03:14:09;94254.88;;;14.51;92.40
23166;BME280;11751;42.700;24.170;2022-09-09T03:16:36;94260.94;;;14.47;92.26
23166;BME280;11751;42.700;24.170;2022-09-09T03:19:02;94261.00;;;14.40;93.01
23166;BME280;11751;42.700;24.170;2022-09-09T03:21:28;94254.28;;;14.35;93.16
23166;BME280;11751;42.700;24.170;2022-09-09T03:23:53;94250.31;;;14.38;92.75
23166;BME280;11751;42.700;24.170;2022-09-09T03:26:18;94258.38;;;14.42;92.41
23166;BME280;11751;42.700;24.170;2022-09-09T03:28:45;94251.66;;;14.37;92.79
23166;BME280;11751;42.700;24.170;2022-09-09T03:31:11;94247.16;;;14.34;93.13
23166;BME280;11751;42.700;24.170;2022-09-09T03:33:37;94239.91;;;14.07;94.45
23166;BME280;11751;42.700;24.170;2022-09-09T03:36:04;94246.91;;;13.98;95.27
23166;BME280;11751;42.700;24.170;2022-09-09T03:38:29;94244.50;;;14.19;94.03
23166;BME280;11751;42.700;24.170;2022-09-09T03:40:56;94244.63;;;14.29;93.22
23166;BME280;11751;42.700;24.170;2022-09-09T03:43:23;94239.38;;;14.25;93.91
23166;BME280;11751;42.700;24.170;2022-09-09T03:45:49;94242.84;;;14.16;94.30
23166;BME280;11751;42.700;24.170;2022-09-09T03:48:15;94241.34;;;14.15;94.57
23166;BME280;11751;42.700;24.170;2022-09-09T03:50:45;94230.06;;;14.15;94.48
23166;BME280;11751;42.700;24.170;2022-09-09T03:53:10;94239.28;;;14.16;94.49
23166;BME280;11751;42.700;24.170;2022-09-09T03:55:36;94242.78;;;14.24;94.01
23166;BME280;11751;42.700;24.170;2022-09-09T03:58:01;94237.38;;;14.35;93.28
23166;BME280;11751;42.700;24.170;2022-09-09T04:00:27;94229.59;;;14.26;93.06
23166;BME280;11751;42.700;24.170;2022-09-09T04:02:52;94239.72;;;14.29;93.15
23166;BME280;11751;42.700;24.170;2022-09-09T04:05:22;94240.97;;;14.36;93.18
23166;BME280;11751;42.700;24.170;2022-09-09T04:07:47;94246.38;;;14.41;92.52
23166;BME280;11751;42.700;24.170;2022-09-09T04:10:13;94246.84;;;14.47;92.16
23166;BME280;11751;42.700;24.170;2022-09-09T04:12:39;94247.03;;;14.49;91.82
23166;BME280;11751;42.700;24.170;2022-09-09T04:15:04;94246.53;;;14.60;91.57
23166;BME280;11751;42.700;24.170;2022-09-09T04:17:30;94242.81;;;14.57;91.28
23166;BME280;11751;42.700;24.170;2022-09-09T04:19:56;94240.91;;;14.60;91.32
23166;BME280;11751;42.700;24.170;2022-09-09T04:22:22;94247.44;;;14.62;90.93
23166;BME280;11751;42.700;24.170;2022-09-09T04:24:47;94245.22;;;14.61;91.11
23166;BME280;11751;42.700;24.170;2022-09-09T04:27:13;94249.53;;;14.62;91.11
23166;BME280;11751;42.700;24.170;2022-09-09T04:29:38;94251.34;;;14.67;91.13
23166;BME280;11751;42.700;24.170;2022-09-09T04:32:04;94251.84;;;14.73;90.78
23166;BME280;11751;42.700;24.170;2022-09-09T04:34:30;94244.72;;;14.72;91.16
23166;BME280;11751;42.700;24.170;2022-09-09T04:36:56;94245.19;;;14.78;90.41
23166;BME280;11751;42.700;24.170;2022-09-09T04:39:22;94240.16;;;14.76;90.55
23166;BME280;11751;42.700;24.170;2022-09-09T04:41:47;94240.47;;;14.80;90.44
23166;BME280;11751;42.700;24.170;2022-09-09T04:44:13;94244.03;;;14.64;92.02
23166;BME280;11751;42.700;24.170;2022-09-09T04:46:39;94258.47;;;14.68;91.92
23166;BME280;11751;42.700;24.170;2022-09-09T04:49:06;94259.31;;;14.78;91.75
23166;BME280;11751;42.700;24.170;2022-09-09T04:51:31;94262.53;;;14.91;90.98
23166;BME280;11751;42.700;24.170;2022-09-09T04:53:57;94272.97;;;14.98;90.42
23166;BME280;11751;42.700;24.170;2022-09-09T04:56:22;94266.81;;;15.09;90.49
23166;BME280;11751;42.700;24.170;2022-09-09T04:58:48;94265.41;;;15.18;90.06
23166;BME280;11751;42.700;24.170;2022-09-09T05:01:21;94270.31;;;15.17;90.66
23166;BME280;11751;42.700;24.170;2022-09-09T05:03:47;94267.63;;;15.19;90.66
23166;BME280;11751;42.700;24.170;2022-09-09T05:06:15;94266.47;;;15.22;90.13
23166;BME280;11751;42.700;24.170;2022-09-09T05:08:43;94266.41;;;15.30;90.10
23166;BME280;11751;42.700;24.170;2022-09-09T05:13:45;94256.63;;;15.31;89.68
23166;BME280;11751;42.700;24.170;2022-09-09T05:16:11;94260.28;;;15.50;89.03
23166;BME280;11751;42.700;24.170;2022-09-09T05:18:38;94255.16;;;15.65;88.56
23166;BME280;11751;42.700;24.170;2022-09-09T05:21:04;94254.75;;;16.05;87.63
23166;BME280;11751;42.700;24.170;2022-09-09T05:23:29;94253.13;;;16.47;86.07
23166;BME280;11751;42.700;24.170;2022-09-09T05:25:56;94243.31;;;16.76;83.84
23166;BME280;11751;42.700;24.170;2022-09-09T05:28:22;94231.88;;;17.03;82.40
23166;BME280;11751;42.700;24.170;2022-09-09T05:30:55;94224.44;;;17.35;80.78
23166;BME280;11751;42.700;24.170;2022-09-09T05:33:21;94222.22;;;17.74;79.16
23166;BME280;11751;42.700;24.170;2022-09-09T05:35:46;94224.81;;;18.00;77.38
23166;BME280;11751;42.700;24.170;2022-09-09T05:38:12;94224.72;;;18.28;76.77
23166;BME280;11751;42.700;24.170;2022-09-09T05:40:37;94225.28;;;18.57;75.56
23166;BME280;11751;42.700;24.170;2022-09-09T05:43:02;94231.03;;;18.69;74.38
23166;BME280;11751;42.700;24.170;2022-09-09T05:45:28;94224.47;;;18.87;74.12
23166;BME280;11751;42.700;24.170;2022-09-09T05:47:53;94226.84;;;19.11;73.95
23166;BME280;11751;42.700;24.170;2022-09-09T05:50:19;94228.19;;;19.31;72.28
23166;BME280;11751;42.700;24.170;2022-09-09T05:52:44;94233.88;;;19.43;72.53
23166;BME280;11751;42.700;24.170;2022-09-09T05:55:09;94225.47;;;19.33;73.07
23166;BME280;11751;42.700;24.170;2022-09-09T05:57:35;94221.25;;;19.34;73.64
23166;BME280;11751;42.700;24.170;2022-09-09T06:00:00;94228.19;;;19.31;73.33
23166;BME280;11751;42.700;24.170;2022-09-09T06:02:26;94224.69;;;19.21;73.93
23166;BME280;11751;42.700;24.170;2022-09-09T06:04:51;94220.38;;;19.32;73.46
23166;BME280;11751;42.700;24.170;2022-09-09T06:07:17;94220.19;;;19.39;72.60
23166;BME280;11751;42.700;24.170;2022-09-09T06:09:42;94216.13;;;19.42;71.86
23166;BME280;11751;42.700;24.170;2022-09-09T06:12:08;94225.75;;;19.49;71.77
23166;BME280;11751;42.700;24.170;2022-09-09T06:14:34;94222.75;;;19.35;71.83
23166;BME280;11751;42.700;24.170;2022-09-09T06:16:59;94222.81;;;19.58;70.99
23166;BME280;11751;42.700;24.170;2022-09-09T06:19:24;94215.44;;;19.65;71.27
23166;BME280;11751;42.700;24.170;2022-09-09T06:21:52;94214.66;;;19.64;70.90
23166;BME280;11751;42.700;24.170;2022-09-09T06:24:17;94216.56;;;19.71;70.48
23166;BME280;11751;42.700;24.170;2022-09-09T06:26:44;94222.59;;;19.66;71.13
23166;BME280;11751;42.700;24.170;2022-09-09T06:29:10;94218.41;;;19.78;70.99
23166;BME280;11751;42.700;24.170;2022-09-09T06:31:36;94220.91;;;19.72;70.79
23166;BME280;11751;42.700;24.170;2022-09-09T06:34:04;94226.09;;;19.87;69.23
23166;BME280;11751;42.700;24.170;2022-09-09T06:36:32;94227.38;;;20.18;69.08
23166;BME280;11751;42.700;24.170;2022-09-09T06:38:59;94229.38;;;20.39;69.05
23166;BME280;11751;42.700;24.170;2022-09-09T06:41:27;94213.53;;;20.59;68.70
23166;BME280;11751;42.700;24.170;2022-09-09T06:43:52;94205.94;;;20.74;68.36
23166;BME280;11751;42.700;24.170;2022-09-09T06:46:23;94210.13;;;20.96;67.59
23166;BME280;11751;42.700;24.170;2022-09-09T06:48:49;94222.41;;;20.87;67.63
23166;BME280;11751;42.700;24.170;2022-09-09T06:51:21;94231.31;;;20.93;68.00
23166;BME280;11751;42.700;24.170;2022-09-09T06:53:50;94228.53;;;21.07;67.69
23166;BME280;11751;42.700;24.170;2022-09-09T06:56:23;94229.44;;;21.09;67.29
23166;BME280;11751;42.700;24.170;2022-09-09T06:58:51;94227.25;;;21.21;66.83
23166;BME280;11751;42.700;24.170;2022-09-09T07:01:22;94218.63;;;21.44;66.47
23166;BME280;11751;42.700;24.170;2022-09-09T07:03:50;94219.88;;;21.41;66.82
23166;BME280;11751;42.700;24.170;2022-09-09T07:06:18;94226.78;;;21.74;66.32
23166;BME280;11751;42.700;24.170;2022-09-09T07:08:51;94234.22;;;21.79;66.13
23166;BME280;11751;42.700;24.170;2022-09-09T07:11:18;94227.66;;;21.77;65.46
23166;BME280;11751;42.700;24.170;2022-09-09T07:13:44;94226.75;;;21.86;64.95
23166;BME280;11751;42.700;24.170;2022-09-09T07:16:12;94222.81;;;21.79;63.96
23166;BME280;11751;42.700;24.170;2022-09-09T07:18:39;94223.22;;;22.12;63.05
23166;BME280;11751;42.700;24.170;2022-09-09T07:21:06;94219.72;;;22.00;64.58
23166;BME280;11751;42.700;24.170;2022-09-09T07:23:32;94223.47;;;22.30;62.82
23166;BME280;11751;42.700;24.170;2022-09-09T07:25:59;94230.78;;;22.33;63.74
23166;BME280;11751;42.700;24.170;2022-09-09T07:28:25;94237.56;;;22.39;62.39
23166;BME280;11751;42.700;24.170;2022-09-09T07:30:56;94230.94;;;22.61;61.56
23166;BME280;11751;42.700;24.170;2022-09-09T07:33:23;94243.72;;;22.87;60.84
23166;BME280;11751;42.700;24.170;2022-09-09T07:35:49;94230.41;;;23.05;60.67
23166;BME280;11751;42.700;24.170;2022-09-09T07:38:15;94234.09;;;23.21;60.47
23166;BME280;11751;42.700;24.170;2022-09-09T07:40:41;94227.47;;;23.45;60.45
23166;BME280;11751;42.700;24.170;2022-09-09T07:43:06;94230.50;;;23.63;59.02
23166;BME280;11751;42.700;24.170;2022-09-09T07:45:33;94227.19;;;23.68;59.78
23166;BME280;11751;42.700;24.170;2022-09-09T07:47:59;94223.31;;;23.91;59.43
23166;BME280;11751;42.700;24.170;2022-09-09T07:50:25;94226.84;;;24.20;57.03
23166;BME280;11751;42.700;24.170;2022-09-09T07:52:51;94233.25;;;23.90;58.65
23166;BME280;11751;42.700;24.170;2022-09-09T07:55:17;94225.00;;;24.26;58.30
23166;BME280;11751;42.700;24.170;2022-09-09T07:57:42;94214.72;;;24.50;57.94
23166;BME280;11751;42.700;24.170;2022-09-09T08:00:08;94207.31;;;24.61;57.83
23166;BME280;11751;42.700;24.170;2022-09-09T08:02:35;94212.47;;;24.64;57.38
23166;BME280;11751;42.700;24.170;2022-09-09T08:05:01;94212.09;;;24.87;56.12
23166;BME280;11751;42.700;24.170;2022-09-09T08:07:26;94204.88;;;24.86;55.99
23166;BME280;11751;42.700;24.170;2022-09-09T08:09:52;94209.84;;;25.01;55.99
23166;BME280;11751;42.700;24.170;2022-09-09T08:12:19;94215.59;;;24.86;55.86
23166;BME280;11751;42.700;24.170;2022-09-09T08:14:44;94206.75;;;25.28;54.90
23166;BME280;11751;42.700;24.170;2022-09-09T08:17:10;94201.53;;;25.40;53.97
23166;BME280;11751;42.700;24.170;2022-09-09T08:19:35;94206.03;;;25.45;53.81
23166;BME280;11751;42.700;24.170;2022-09-09T08:22:02;94199.44;;;25.25;54.83
23166;BME280;11751;42.700;24.170;2022-09-09T08:24:31;94198.66;;;25.40;54.62
23166;BME280;11751;42.700;24.170;2022-09-09T08:26:56;94198.03;;;25.59;53.14
23166;BME280;11751;42.700;24.170;2022-09-09T08:29:22;94190.94;;;25.62;53.88
23166;BME280;11751;42.700;24.170;2022-09-09T08:31:53;94198.31;;;25.49;54.43
23166;BME280;11751;42.700;24.170;2022-09-09T08:34:20;94185.97;;;25.80;52.16
23166;BME280;11751;42.700;24.170;2022-09-09T08:36:47;94192.22;;;25.92;52.75
23166;BME280;11751;42.700;24.170;2022-09-09T08:39:19;94187.72;;;25.87;51.72
23166;BME280;11751;42.700;24.170;2022-09-09T08:58:25;94182.09;;;26.25;52.40
23166;BME280;11751;42.700;24.170;2022-09-09T09:06:35;94199.47;;;26.66;49.07
23166;BME280;11751;42.700;24.170;2022-09-09T09:12:16;94193.97;;;26.91;47.07
23166;BME280;11751;42.700;24.170;2022-09-09T09:14:44;94189.09;;;26.77;47.51
23166;BME280;11751;42.700;24.170;2022-09-09T09:17:23;94184.75;;;26.95;47.78
23166;BME280;11751;42.700;24.170;2022-09-09T09:19:50;94170.09;;;26.87;45.67
23166;BME280;11751;42.700;24.170;2022-09-09T09:22:37;94176.63;;;27.09;46.24
23166;BME280;11751;42.700;24.170;2022-09-09T09:25:34;94175.81;;;27.26;45.70
23166;BME280;11751;42.700;24.170;2022-09-09T09:28:16;94162.16;;;27.48;44.27
23166;BME280;11751;42.700;24.170;2022-09-09T09:30:54;94160.94;;;27.12;44.71
23166;BME280;11751;42.700;24.170;2022-09-09T09:33:47;94168.59;;;27.25;45.00
23166;BME280;11751;42.700;24.170;2022-09-09T09:36:14;94137.81;;;27.51;46.08
23166;BME280;11751;42.700;24.170;2022-09-09T09:39:01;94148.19;;;27.81;46.41
23166;BME280;11751;42.700;24.170;2022-09-09T09:41:44;94150.69;;;27.90;44.99
23166;BME280;11751;42.700;24.170;2022-09-09T09:44:30;94149.69;;;28.05;44.00
23166;BME280;11751;42.700;24.170;2022-09-09T09:47:19;94146.41;;;28.15;42.80
23166;BME280;11751;42.700;24.170;2022-09-09T09:49:53;94138.91;;;28.27;44.98
23166;BME280;11751;42.700;24.170;2022-09-09T09:52:23;94138.50;;;28.62;45.05
23166;BME280;11751;42.700;24.170;2022-09-09T09:54:49;94140.28;;;28.73;42.59
23166;BME280;11751;42.700;24.170;2022-09-09T09:57:16;94143.28;;;29.02;43.48
23166;BME280;11751;42.700;24.170;2022-09-09T09:59:42;94142.38;;;28.96;42.11
23166;BME280;11751;42.700;24.170;2022-09-09T10:02:20;94145.72;;;29.12;41.09
23166;BME280;11751;42.700;24.170;2022-09-09T10:04:46;94150.66;;;29.35;42.03
23166;BME280;11751;42.700;24.170;2022-09-09T10:07:21;94141.94;;;28.80;42.10
23166;BME280;11751;42.700;24.170;2022-09-09T10:09:55;94136.34;;;28.86;44.77
23166;BME280;11751;42.700;24.170;2022-09-09T10:26:27;94130.06;;;28.93;45.31
23166;BME280;11751;42.700;24.170;2022-09-09T10:31:27;94129.09;;;29.10;47.64
23166;BME280;11751;42.700;24.170;2022-09-09T10:34:43;94129.78;;;29.63;46.57
23166;BME280;11751;42.700;24.170;2022-09-09T10:42:54;94117.81;;;29.75;46.05
23166;BME280;11751;42.700;24.170;2022-09-09T10:45:43;94117.59;;;29.94;46.06
23166;BME280;11751;42.700;24.170;2022-09-09T10:51:40;94123.94;;;30.18;43.55
23166;BME280;11751;42.700;24.170;2022-09-09T10:54:32;94125.47;;;30.23;44.61
23166;BME280;11751;42.700;24.170;2022-09-09T10:57:10;94118.16;;;30.18;43.63
23166;BME280;11751;42.700;24.170;2022-09-09T10:59:48;94115.22;;;30.16;43.22
23166;BME280;11751;42.700;24.170;2022-09-09T11:02:25;94119.84;;;30.29;43.33
23166;BME280;11751;42.700;24.170;2022-09-09T11:05:16;94119.28;;;30.05;44.32
23166;BME280;11751;42.700;24.170;2022-09-09T11:07:57;94120.53;;;30.28;44.94
23166;BME280;11751;42.700;24.170;2022-09-09T11:11:08;94118.22;;;30.22;45.59
23166;BME280;11751;42.700;24.170;2022-09-09T11:18:46;94110.50;;;29.99;45.31
23166;BME280;11751;42.700;24.170;2022-09-09T11:21:34;94110.97;;;30.21;46.67
23166;BME280;11751;42.700;24.170;2022-09-09T11:24:06;94108.47;;;30.37;45.63
23166;BME280;11751;42.700;24.170;2022-09-09T11:26:40;94104.28;;;30.44;43.69
23166;BME280;11751;42.700;24.170;2022-09-09T11:32:12;94102.97;;;30.49;46.04
23166;BME280;11751;42.700;24.170;2022-09-09T11:34:50;94094.00;;;30.37;44.76
23166;BME280;11751;42.700;24.170;2022-09-09T11:42:45;94096.50;;;29.90;44.42
23166;BME280;11751;42.700;24.170;2022-09-09T11:45:30;94092.59;;;29.77;46.47
23166;BME280;11751;42.700;24.170;2022-09-09T11:48:00;94088.69;;;29.94;45.61
23166;BME280;11751;42.700;24.170;2022-09-09T11:50:29;94084.66;;;29.76;46.37
23166;BME280;11751;42.700;24.170;2022-09-09T11:55:39;94085.97;;;30.00;44.07
23166;BME280;11751;42.700;24.170;2022-09-09T12:00:44;94082.09;;;30.21;44.38
23166;BME280;11751;42.700;24.170;2022-09-09T12:03:36;94073.53;;;30.25;44.96
23166;BME280;11751;42.700;24.170;2022-09-09T12:06:29;94066.75;;;29.83;46.16
23166;BME280;11751;42.700;24.170;2022-09-09T12:09:07;94067.19;;;29.99;46.49
23166;BME280;11751;42.700;24.170;2022-09-09T12:11:33;94065.28;;;29.82;46.61
23166;BME280;11751;42.700;24.170;2022-09-09T12:13:59;94069.34;;;29.69;47.46
23166;BME280;11751;42.700;24.170;2022-09-09T12:16:34;94065.56;;;29.63;47.26
23166;BME280;11751;42.700;24.170;2022-09-09T12:24:07;94063.06;;;28.95;48.41
23166;BME280;11751;42.700;24.170;2022-09-09T12:32:00;94063.97;;;28.76;49.34
23166;BME280;11751;42.700;24.170;2022-09-09T12:37:38;94050.38;;;28.28;51.48
23166;BME280;11751;42.700;24.170;2022-09-09T12:40:19;94048.59;;;27.93;52.55
23166;BME280;11751;42.700;24.170;2022-09-09T12:42:47;94055.25;;;27.76;52.51
23166;BME280;11751;42.700;24.170;2022-09-09T12:47:50;94053.53;;;27.68;53.31
23166;BME280;11751;42.700;24.170;2022-09-09T12:50:29;94042.28;;;27.54;53.61
23166;BME280;11751;42.700;24.170;2022-09-09T12:53:01;94047.94;;;27.29;53.76
23166;BME280;11751;42.700;24.170;2022-09-09T12:55:31;94049.50;;;27.10;53.88
23166;BME280;11751;42.700;24.170;2022-09-09T12:58:00;94054.75;;;27.18;54.82
23166;BME280;11751;42.700;24.170;2022-09-09T13:00:30;94050.06;;;27.07;55.11
23166;BME280;11751;42.700;24.170;2022-09-09T13:02:58;94056.56;;;27.07;55.51
23166;BME280;11751;42.700;24.170;2022-09-09T13:05:36;94047.16;;;27.05;54.73
23166;BME280;11751;42.700;24.170;2022-09-09T13:08:10;94053.94;;;26.94;54.88
23166;BME280;11751;42.700;24.170;2022-09-09T13:10:45;94056.59;;;26.88;55.47
23166;BME280;11751;42.700;24.170;2022-09-09T13:13:23;94049.31;;;26.85;56.04
23166;BME280;11751;42.700;24.170;2022-09-09T13:15:52;94050.34;;;26.53;56.96
23166;BME280;11751;42.700;24.170;2022-09-09T13:18:40;94050.63;;;26.61;57.63
23166;BME280;11751;42.700;24.170;2022-09-09T13:21:07;94040.97;;;26.52;56.91
23166;BME280;11751;42.700;24.170;2022-09-09T13:23:39;94031.22;;;26.61;57.06
23166;BME280;11751;42.700;24.170;2022-09-09T13:26:25;94028.59;;;26.67;56.73
23166;BME280;11751;42.700;24.170;2022-09-09T13:28:53;94031.50;;;26.69;56.31
23166;BME280;11751;42.700;24.170;2022-09-09T13:31:30;94025.31;;;26.77;56.84
23166;BME280;11751;42.700;24.170;2022-09-09T13:33:57;94015.66;;;26.68;57.69
23166;BME280;11751;42.700;24.170;2022-09-09T13:36:32;94021.97;;;26.84;56.67
23166;BME280;11751;42.700;24.170;2022-09-09T13:39:00;94021.81;;;26.80;57.37
23166;BME280;11751;42.700;24.170;2022-09-09T13:41:36;94013.28;;;26.82;57.62
23166;BME280;11751;42.700;24.170;2022-09-09T13:44:36;94022.09;;;26.88;58.55
23166;BME280;11751;42.700;24.170;2022-09-09T13:47:18;94024.09;;;26.62;57.48
23166;BME280;11751;42.700;24.170;2022-09-09T13:49:45;94042.63;;;26.59;58.13
23166;BME280;11751;42.700;24.170;2022-09-09T13:52:14;94040.13;;;26.69;58.35
23166;BME280;11751;42.700;24.170;2022-09-09T13:54:41;94031.84;;;26.79;58.33
23166;BME280;11751;42.700;24.170;2022-09-09T13:57:21;94034.34;;;26.88;58.91
23166;BME280;11751;42.700;24.170;2022-09-09T14:00:06;94032.16;;;26.87;58.78
23166;BME280;11751;42.700;24.170;2022-09-09T14:02:33;94029.16;;;27.04;57.88
23166;BME280;11751;42.700;24.170;2022-09-09T14:05:04;94026.75;;;26.56;57.53
23166;BME280;11751;42.700;24.170;2022-09-09T14:07:29;94021.88;;;26.61;57.12
23166;BME280;11751;42.700;24.170;2022-09-09T14:09:55;94030.88;;;26.51;57.18
23166;BME280;11751;42.700;24.170;2022-09-09T14:12:23;94025.38;;;26.57;57.60
23166;BME280;11751;42.700;24.170;2022-09-09T14:14:48;94022.63;;;26.61;58.38
23166;BME280;11751;42.700;24.170;2022-09-09T14:17:15;94030.75;;;26.47;57.12
23166;BME280;11751;42.700;24.170;2022-09-09T14:19:41;94025.28;;;26.55;57.60
23166;BME280;11751;42.700;24.170;2022-09-09T14:22:06;94028.31;;;26.81;55.75
23166;BME280;11751;42.700;24.170;2022-09-09T14:24:32;94023.72;;;26.93;56.18
23166;BME280;11751;42.700;24.170;2022-09-09T14:26:58;94023.72;;;26.93;54.83
23166;BME280;11751;42.700;24.170;2022-09-09T14:29:23;94021.09;;;27.01;54.81
23166;BME280;11751;42.700;24.170;2022-09-09T14:31:53;94026.16;;;27.22;54.78
23166;BME280;11751;42.700;24.170;2022-09-09T14:34:20;94026.00;;;27.18;57.04
23166;BME280;11751;42.700;24.170;2022-09-09T14:36:46;94028.63;;;27.10;56.70
23166;BME280;11751;42.700;24.170;2022-09-09T14:39:14;94028.25;;;27.00;55.48
23166;BME280;11751;42.700;24.170;2022-09-09T14:41:40;94022.50;;;27.00;56.20
23166;BME280;11751;42.700;24.170;2022-09-09T14:44:05;94020.00;;;27.10;55.41
23166;BME280;11751;42.700;24.170;2022-09-09T14:46:32;94008.75;;;27.18;55.54
23166;BME280;11751;42.700;24.170;2022-09-09T14:48:58;94009.97;;;27.11;56.14
23166;BME280;11751;42.700;24.170;2022-09-09T14:51:24;94006.28;;;27.30;55.25
23166;BME280;11751;42.700;24.170;2022-09-09T14:53:53;93999.91;;;27.33;56.06
23166;BME280;11751;42.700;24.170;2022-09-09T14:56:21;93999.44;;;27.41;56.38
23166;BME280;11751;42.700;24.170;2022-09-09T14:58:48;93992.66;;;27.54;54.43
23166;BME280;11751;42.700;24.170;2022-09-09T15:01:19;93985.22;;;27.68;52.21
23166;BME280;11751;42.700;24.170;2022-09-09T15:03:54;93988.41;;;27.78;54.04
23166;BME280;11751;42.700;24.170;2022-09-09T15:06:22;93986.94;;;27.77;53.19
23166;BME280;11751;42.700;24.170;2022-09-09T15:08:50;93991.94;;;27.76;52.96
23166;BME280;11751;42.700;24.170;2022-09-09T15:11:17;94001.41;;;27.81;53.49
23166;BME280;11751;42.700;24.170;2022-09-09T15:13:44;94012.69;;;27.73;53.49
23166;BME280;11751;42.700;24.170;2022-09-09T15:16:14;94010.38;;;27.68;53.97
23166;BME280;11751;42.700;24.170;2022-09-09T15:18:42;94005.91;;;27.63;53.71